Thunderstorms From: 15-12-2017 06:00 Until: 16-12-2017 06:00 warning for: Thunderstorms Level: Yellow info button

Although rather usual in this region, locally or potentially dangerous phenomena are expected. (such as local winds, summer thunderstorms, rising streams or high waves) Be aware and pay attention to the latest weather updates, especially if you carry out activities exposed to weather or close to a stream or shoreline. 


Meteo18 Weather Cam more information Meteo18 Weather Cam


warning for Thunderstorms more information blitzortung!


Rain radar more information rain snow radar


Visit our other weather sites:

Template documentation
and downloads

And another site



Weather Underground History page Text

Daily Summary for September 14, 2017 Units:  English    Metric   Both
« Previous Day
Next Day »
Daily Weekly Monthly Yearly Custom
  High: Low: Average:
Temperature: 64.4 °F 50 °F 57 °F
Dew Point: 59.2 °F 44.6 °F 49.1 °F
Humidity: 95 % 54 % 76 %
Wind Speed: 24 mph 0 mph 8.2 mph
Wind Gust: 33 mph - -
Wind:- - WSW
Pressure: 30.1 in 29.8 in -
Precipitation: 0.47 in    
Historical Graphs
 
 
Tabular Data for September 14, 2017
Time Temperature Dew Point Pressure Wind Wind Speed Wind Gust Humidity Rainfall Rate (Hourly)
00:02 64 °F 59.2 °F 29.9 in SW 23 mph 32 mph 84 % 0 in
00:07 64 °F 59.2 °F 29.9 in SW 17 mph 32 mph 84 % 0 in
00:12 63.9 °F 59 °F 29.9 in SW 13 mph 29 mph 84 % 0 in
00:17 63.9 °F 59 °F 29.9 in SSW 20 mph 29 mph 84 % 0 in
00:22 63.9 °F 59 °F 29.9 in West 15 mph 29 mph 84 % 0 in
00:32 63.9 °F 58.6 °F 29.9 in SSW 9 mph 28 mph 83 % 0 in
00:42 63.5 °F 58.3 °F 29.9 in WSW 16 mph 33 mph 83 % 0 in
00:52 63.5 °F 57.9 °F 29.8 in SW 8 mph 24 mph 82 % 0 in
00:57 63.5 °F 57.9 °F 29.8 in SW 16 mph 26 mph 82 % 0 in
01:02 63.5 °F 58.3 °F 29.8 in SW 23 mph 26 mph 83 % 0 in
01:07 63.5 °F 58.3 °F 29.8 in West 20 mph 25 mph 83 % 0 in
01:12 63.3 °F 58.1 °F 29.8 in South 7 mph 25 mph 83 % 0 in
01:17 63.3 °F 58.1 °F 29.8 in SW 17 mph 23 mph 83 % 0 in
01:27 63.3 °F 58.1 °F 29.8 in SW 20 mph 29 mph 83 % 0 in
01:32 63.3 °F 58.1 °F 29.8 in SSE 13 mph 29 mph 83 % 0 in
01:37 63.3 °F 58.1 °F 29.8 in SW 18 mph 29 mph 83 % 0 in
01:42 63.3 °F 58.1 °F 29.8 in SW 11 mph 29 mph 83 % 0 in
01:47 63.5 °F 57.9 °F 29.8 in SW 15 mph 26 mph 82 % 0 in
01:52 63.7 °F 58.1 °F 29.8 in SW 21 mph 25 mph 82 % 0 in
01:57 63.7 °F 58.1 °F 29.8 in SW 23 mph 25 mph 82 % 0 in
02:07 63.7 °F 58.1 °F 29.8 in WSW 16 mph 25 mph 82 % 0 in
02:12 63.9 °F 58.3 °F 29.8 in WSW 20 mph 28 mph 82 % 0 in
02:17 63.9 °F 58.3 °F 29.8 in WSW 24 mph 28 mph 82 % 0 in
02:22 64 °F 58.1 °F 29.8 in WSW 14 mph 28 mph 81 % 0 in
02:32 64.2 °F 58.6 °F 29.8 in West 14 mph 29 mph 82 % 0 in
02:37 64.2 °F 58.6 °F 29.8 in SW 15 mph 28 mph 82 % 0 in
02:42 64.2 °F 58.6 °F 29.8 in SW 13 mph 29 mph 82 % 0 in
02:47 64.2 °F 58.6 °F 29.8 in SSW 13 mph 29 mph 82 % 0 in
02:52 64.4 °F 58.8 °F 29.8 in SW 18 mph 28 mph 82 % 0 in
03:02 64.4 °F 58.8 °F 29.8 in SW 12 mph 28 mph 82 % 0 in
03:07 64.4 °F 58.8 °F 29.8 in SSW 17 mph 28 mph 82 % 0 in
03:12 64.2 °F 58.6 °F 29.8 in SW 23 mph 28 mph 82 % 0 in
03:17 64.4 °F 58.8 °F 29.8 in WSW 17 mph 27 mph 82 % 0 in
03:22 64.4 °F 58.8 °F 29.8 in SW 16 mph 27 mph 82 % 0 in
03:27 64.4 °F 58.5 °F 29.8 in SW 12 mph 32 mph 81 % 0 in
03:32 64.2 °F 58.3 °F 29.8 in WNW 13 mph 32 mph 81 % 0 in
03:37 64 °F 58.8 °F 29.8 in NW 19 mph 27 mph 83 % 0 in
03:42 59.4 °F 52.9 °F 29.8 in WNW 17 mph 26 mph 79 % 0.02 in
03:47 55.9 °F 52.2 °F 29.8 in NNW 9 mph 26 mph 87 % 0.08 in
03:52 54.7 °F 51.8 °F 29.8 in NNW 9 mph 25 mph 90 % 0.09 in
03:57 54.1 °F 51.6 °F 29.8 in ENE 8 mph 21 mph 91 % 0.1 in
04:02 53.8 °F 51.4 °F 29.8 in WNW 8 mph 21 mph 92 % 0.1 in
04:07 53.4 °F 51.1 °F 29.8 in WNW 12 mph 16 mph 92 % 0.12 in
04:12 53.4 °F 51.1 °F 29.8 in NW 4 mph 15 mph 92 % 0.13 in
04:17 53.2 °F 51.3 °F 29.8 in WNW 4 mph 14 mph 93 % 0.13 in
04:22 53.1 °F 51.1 °F 29.8 in WNW 5 mph 15 mph 93 % 0.13 in
04:27 53.1 °F 51.1 °F 29.8 in WNW 7 mph 18 mph 93 % 0.14 in
04:32 52.9 °F 50.9 °F 29.8 in WSW 5 mph 18 mph 93 % 0.14 in
04:37 52.9 °F 50.9 °F 29.8 in West 2 mph 18 mph 93 % 0.14 in
04:42 52.5 °F 50.5 °F 29.8 in West 2 mph 10 mph 93 % 0.11 in
04:47 52.3 °F 50.4 °F 29.8 in NNW 3 mph 10 mph 93 % 0.08 in
04:52 52.3 °F 50.4 °F 29.8 in NW 4 mph 10 mph 93 % 0.08 in
05:02 52.2 °F 50.2 °F 29.9 in West 6 mph 12 mph 93 % 0.09 in
05:07 52.2 °F 50.2 °F 29.9 in SSW 3 mph 12 mph 93 % 0.09 in
05:12 52.2 °F 50.2 °F 29.9 in WSW 1 mph 12 mph 93 % 0.09 in
05:22 52 °F 50 °F 29.9 in WSW 1 mph 13 mph 93 % 0.09 in
05:32 52 °F 50 °F 29.9 in WSW 4 mph 8 mph 93 % 0.09 in
05:37 52.2 °F 49.8 °F 29.9 in West 7 mph 8 mph 92 % 0.09 in
05:42 52.2 °F 49.8 °F 29.9 in SSW 5 mph 12 mph 92 % 0.08 in
05:47 52.2 °F 49.8 °F 29.9 in NW 4 mph 12 mph 92 % 0.07 in
05:52 52.2 °F 49.8 °F 29.9 in West 3 mph 12 mph 92 % 0.06 in
05:57 52 °F 49.6 °F 29.9 in SW 5 mph 7 mph 92 % 0.06 in
06:02 52 °F 49.6 °F 29.9 in SW 3 mph 7 mph 92 % 0.05 in
06:07 51.8 °F 49.6 °F 29.9 in WSW 2 mph 6 mph 92 % 0.03 in
06:12 51.6 °F 49.6 °F 29.9 in SSW 1 mph 6 mph 93 % 0.03 in
06:17 51.6 °F 49.6 °F 29.9 in Calm   6 mph 93 % 0.02 in
06:22 51.8 °F 50.2 °F 29.9 in SW 4 mph 6 mph 94 % 0.02 in
06:32 52 °F 50.4 °F 29.9 in SSW 1 mph 7 mph 94 % 0.03 in
06:37 52 °F 50.4 °F 29.9 in WSW 4 mph 8 mph 94 % 0.06 in
06:42 52 °F 50.5 °F 29.9 in WNW 1 mph 8 mph 95 % 0.06 in
06:52 51.8 °F 50.4 °F 29.9 in SSE 1 mph 8 mph 95 % 0.08 in
06:57 51.8 °F 50.4 °F 29.9 in SW 2 mph 9 mph 95 % 0.11 in
07:02 51.8 °F 50.4 °F 29.9 in SSW 6 mph 9 mph 95 % 0.11 in
07:12 51.6 °F 50.2 °F 29.9 in South 4 mph 10 mph 95 % 0.12 in
07:17 51.6 °F 50.2 °F 29.9 in SSW 6 mph 10 mph 95 % 0.13 in
07:22 51.6 °F 50.2 °F 29.9 in South 2 mph 11 mph 95 % 0.14 in
07:27 51.8 °F 50.4 °F 29.9 in SW 6 mph 11 mph 95 % 0.14 in
07:32 51.8 °F 50.4 °F 29.9 in WSW 9 mph 16 mph 95 % 0.13 in
07:37 51.8 °F 50.4 °F 29.9 in SW 8 mph 16 mph 95 % 0.15 in
07:42 51.8 °F 50.4 °F 29.9 in West 8 mph 16 mph 95 % 0.14 in
07:47 51.8 °F 50.4 °F 29.9 in SW 10 mph 14 mph 95 % 0.14 in
07:52 51.8 °F 50.4 °F 29.9 in SW 4 mph 17 mph 95 % 0.13 in
08:02 52 °F 50.5 °F 29.9 in SW 5 mph 17 mph 95 % 0.12 in
08:12 52.2 °F 50.7 °F 29.9 in SW 13 mph 14 mph 95 % 0.11 in
08:22 52.3 °F 50.7 °F 29.9 in WSW 8 mph 14 mph 94 % 0.06 in
08:32 52.3 °F 50.7 °F 29.9 in SW 8 mph 18 mph 94 % 0.05 in
08:37 52.5 °F 50.9 °F 29.9 in WSW 10 mph 20 mph 94 % 0.03 in
08:42 52.5 °F 50.5 °F 29.9 in West 10 mph 20 mph 93 % 0.02 in
08:47 52.5 °F 50.5 °F 29.9 in West 10 mph 17 mph 93 % 0.01 in
08:52 52.9 °F 50.5 °F 29.9 in West 7 mph 17 mph 92 % 0.01 in
09:02 52.9 °F 50.5 °F 29.9 in West 6 mph 17 mph 92 % 0 in
09:12 53.1 °F 50.7 °F 29.9 in WSW 6 mph 15 mph 92 % 0 in
09:17 53.1 °F 50.7 °F 29.9 in WSW 13 mph 16 mph 92 % 0 in
09:22 53.1 °F 50.7 °F 29.9 in West 6 mph 16 mph 92 % 0 in
09:32 53.1 °F 50.7 °F 29.9 in West 8 mph 15 mph 92 % 0 in
09:37 53.1 °F 50.5 °F 29.9 in West 12 mph 16 mph 91 % 0.01 in
09:42 53.2 °F 50.4 °F 29.9 in WSW 10 mph 16 mph 90 % 0.01 in
09:47 53.2 °F 50.4 °F 29.9 in WSW 8 mph 20 mph 90 % 0.01 in
09:52 53.2 °F 50 °F 29.9 in WNW 6 mph 20 mph 89 % 0.01 in
10:02 53.6 °F 48.9 °F 29.9 in WNW 12 mph 19 mph 84 % 0.01 in
10:12 54.1 °F 49.1 °F 29.9 in West 14 mph 24 mph 83 % 0.01 in
10:17 54.3 °F 49.6 °F 29.9 in West 7 mph 24 mph 84 % 0.01 in
10:22 54.9 °F 50.4 °F 29.9 in West 12 mph 22 mph 85 % 0.01 in
10:32 55 °F 49.6 °F 30 in WSW 10 mph 21 mph 82 % 0.01 in
10:42 54.9 °F 49.5 °F 30 in West 11 mph 21 mph 82 % 0 in
10:47 54.9 °F 49.8 °F 30 in West 9 mph 22 mph 83 % 0 in
10:52 55 °F 49.3 °F 30 in WSW 11 mph 22 mph 81 % 0 in
11:02 55.8 °F 48.7 °F 30 in West 16 mph 21 mph 77 % 0 in
11:12 56.1 °F 48.4 °F 30 in WSW 13 mph 22 mph 75 % 0 in
11:17 56.5 °F 48 °F 30 in West 8 mph 24 mph 73 % 0 in
11:22 56.5 °F 47.1 °F 30 in West 14 mph 24 mph 71 % 0 in
11:32 56.1 °F 47.3 °F 30 in WNW 11 mph 27 mph 72 % 0 in
11:42 56.5 °F 47.5 °F 30 in West 10 mph 27 mph 72 % 0 in
11:47 56.8 °F 47.1 °F 30 in WNW 20 mph 27 mph 70 % 0 in
11:52 57 °F 47.3 °F 30 in West 12 mph 25 mph 70 % 0 in
11:57 56.7 °F 47.3 °F 30 in WNW 5 mph 25 mph 71 % 0 in
12:02 56.7 °F 46.9 °F 30 in West 7 mph 25 mph 70 % 0 in
12:12 56.7 °F 47.3 °F 30 in West 8 mph 23 mph 71 % 0 in
12:17 56.8 °F 47.1 °F 30 in WSW 12 mph 20 mph 70 % 0 in
12:22 56.8 °F 46 °F 30 in WNW 18 mph 20 mph 67 % 0 in
12:32 56.5 °F 47.1 °F 30 in WSW 15 mph 26 mph 71 % 0 in
12:42 57.2 °F 46.8 °F 30 in WNW 11 mph 26 mph 68 % 0 in
12:47 57.4 °F 45.7 °F 30 in WSW 11 mph 19 mph 65 % 0 in
12:52 57.7 °F 46 °F 30 in WSW 19 mph 19 mph 65 % 0 in
12:57 57 °F 46.6 °F 30 in West 15 mph 23 mph 68 % 0 in
13:02 57 °F 47.7 °F 30 in WNW 7 mph 23 mph 71 % 0 in
13:12 57.7 °F 46.4 °F 30 in WSW 13 mph 23 mph 66 % 0 in
13:17 57.4 °F 46 °F 30.1 in WNW 15 mph 18 mph 66 % 0 in
13:22 56.8 °F 46 °F 30.1 in WSW 15 mph 19 mph 67 % 0 in
13:27 57.2 °F 46.4 °F 30.1 in West 7 mph 20 mph 67 % 0 in
13:32 57.9 °F 45.3 °F 30.1 in West 9 mph 20 mph 63 % 0 in
13:42 57.9 °F 46.6 °F 30.1 in West 8 mph 20 mph 66 % 0 in
13:47 58.6 °F 46.6 °F 30.1 in West 11 mph 20 mph 64 % 0 in
13:52 59 °F 46.4 °F 30.1 in WNW 7 mph 19 mph 63 % 0 in
13:57 58.5 °F 45.5 °F 30.1 in WSW 12 mph 19 mph 62 % 0 in
14:02 57.9 °F 46.6 °F 30.1 in West 13 mph 19 mph 66 % 0 in
14:12 57.9 °F 46.9 °F 30.1 in West 8 mph 20 mph 67 % 0 in
14:17 57.9 °F 45.9 °F 30.1 in WSW 7 mph 20 mph 64 % 0 in
14:22 58.1 °F 46 °F 30.1 in West 7 mph 21 mph 64 % 0 in
14:27 58.5 °F 46.8 °F 30.1 in West 9 mph 21 mph 65 % 0 in
14:32 59 °F 47.3 °F 30.1 in WSW 12 mph 17 mph 65 % 0 in
14:37 59.2 °F 46.6 °F 30.1 in WSW 12 mph 17 mph 63 % 0 in
14:42 58.6 °F 46 °F 30.1 in West 11 mph 18 mph 63 % 0 in
14:47 58.6 °F 46 °F 30.1 in West 10 mph 20 mph 63 % 0 in
14:52 59 °F 46.4 °F 30.1 in West 10 mph 23 mph 63 % 0 in
14:57 59 °F 46.4 °F 30.1 in West 11 mph 23 mph 63 % 0 in
15:02 58.8 °F 46.2 °F 30.1 in WNW 9 mph 18 mph 63 % 0 in
15:07 59.2 °F 46.6 °F 30.1 in WNW 17 mph 18 mph 63 % 0 in
15:12 58.8 °F 46.2 °F 30.1 in West 6 mph 21 mph 63 % 0 in
15:17 59.2 °F 46.9 °F 30.1 in West 4 mph 21 mph 64 % 0 in
15:22 59.2 °F 46.9 °F 30.1 in West 11 mph 21 mph 64 % 0 in
15:27 59.2 °F 46.2 °F 30.1 in WSW 14 mph 19 mph 62 % 0 in
15:32 59.2 °F 46.6 °F 30.1 in NW 5 mph 19 mph 63 % 0 in
15:37 59.4 °F 46.8 °F 30.1 in WNW 9 mph 19 mph 63 % 0 in
15:42 59.5 °F 46 °F 30.1 in West 8 mph 16 mph 61 % 0 in
15:47 60.1 °F 47.5 °F 30.1 in West 17 mph 17 mph 63 % 0 in
15:57 59.9 °F 46.8 °F 30.1 in WSW 12 mph 18 mph 62 % 0 in
16:02 59.5 °F 46 °F 30.1 in SW 8 mph 18 mph 61 % 0 in
16:07 59.7 °F 46.2 °F 30.1 in WSW 10 mph 15 mph 61 % 0 in
16:12 59.7 °F 46.2 °F 30.1 in West 13 mph 18 mph 61 % 0 in
16:17 59.7 °F 45.9 °F 30.1 in WSW 10 mph 18 mph 60 % 0 in
16:22 59.5 °F 46 °F 30.1 in West 9 mph 21 mph 61 % 0 in
16:32 60.6 °F 45.7 °F 30.1 in SW 7 mph 23 mph 58 % 0 in
16:37 60.3 °F 45.9 °F 30.1 in West 7 mph 23 mph 59 % 0 in
16:42 60.1 °F 46.2 °F 30.1 in West 6 mph 18 mph 60 % 0 in
16:47 60.1 °F 46.2 °F 30.1 in West 5 mph 17 mph 60 % 0 in
16:52 60.6 °F 45.7 °F 30.1 in WNW 9 mph 19 mph 58 % 0 in
16:57 60.3 °F 45 °F 30.1 in West 12 mph 19 mph 57 % 0 in
17:02 60.6 °F 46.2 °F 30.1 in West 9 mph 19 mph 59 % 0 in
17:07 61 °F 45.7 °F 30.1 in WSW 16 mph 18 mph 57 % 0 in
17:12 61.3 °F 46.4 °F 30.1 in WSW 9 mph 18 mph 58 % 0 in
17:17 61.3 °F 45.5 °F 30.1 in WSW 8 mph 20 mph 56 % 0 in
17:22 61.3 °F 46.4 °F 30.1 in West 13 mph 20 mph 58 % 0 in
17:27 60.6 °F 45.3 °F 30.1 in West 7 mph 20 mph 57 % 0 in
17:32 60.1 °F 45.7 °F 30.1 in WSW 5 mph 17 mph 59 % 0 in
17:37 60.1 °F 45.3 °F 30.1 in WSW 9 mph 17 mph 58 % 0 in
17:42 59.9 °F 45.1 °F 30.1 in NW 6 mph 16 mph 58 % 0 in
17:47 59.9 °F 45.1 °F 30.1 in SW 11 mph 15 mph 58 % 0 in
17:52 60.1 °F 44.8 °F 30.1 in WNW 8 mph 14 mph 57 % 0 in
17:57 60.3 °F 45 °F 30.1 in WSW 11 mph 18 mph 57 % 0 in
18:02 60.3 °F 45.5 °F 30.1 in West 10 mph 18 mph 58 % 0 in
18:07 60.6 °F 45.3 °F 30.1 in West 7 mph 18 mph 57 % 0 in
18:12 61.2 °F 45.3 °F 30.1 in WSW 8 mph 16 mph 56 % 0 in
18:17 61 °F 45.1 °F 30.1 in West 4 mph 16 mph 56 % 0 in
18:22 61.2 °F 45.3 °F 30.1 in WSW 7 mph 15 mph 56 % 0 in
18:32 61.3 °F 44.6 °F 30.1 in WSW 6 mph 18 mph 54 % 0 in
18:37 61 °F 44.8 °F 30.1 in WSW 9 mph 18 mph 55 % 0 in
18:42 60.6 °F 45.3 °F 30.1 in West 9 mph 18 mph 57 % 0 in
18:52 60.8 °F 45 °F 30.1 in SW 12 mph 17 mph 56 % 0 in
18:57 60.8 °F 45.5 °F 30.1 in West 5 mph 17 mph 57 % 0 in
19:02 60.6 °F 45.3 °F 30.1 in WNW 14 mph 17 mph 57 % 0 in
19:07 60.6 °F 45.3 °F 30.1 in West 7 mph 15 mph 57 % 0 in
19:12 60.4 °F 45.1 °F 30.1 in WNW 4 mph 15 mph 57 % 0 in
19:17 60.4 °F 45.1 °F 30.1 in SW 3 mph 15 mph 57 % 0 in
19:22 60.4 °F 45.1 °F 30.1 in West 9 mph 15 mph 57 % 0 in
19:32 60.1 °F 44.8 °F 30.1 in WSW 10 mph 12 mph 57 % 0 in
19:37 59.5 °F 44.8 °F 30.1 in WSW 6 mph 14 mph 58 % 0 in
19:42 59.2 °F 44.8 °F 30.1 in WSW 7 mph 14 mph 59 % 0 in
19:47 58.6 °F 44.8 °F 30.1 in SW 3 mph 14 mph 60 % 0 in
19:52 58.5 °F 45.1 °F 30.1 in West 3 mph 9 mph 61 % 0 in
19:57 58.3 °F 45.3 °F 30.1 in West 3 mph 8 mph 62 % 0 in
20:02 57.7 °F 45.3 °F 30.1 in WSW 2 mph 6 mph 63 % 0 in
20:07 57.6 °F 45.5 °F 30.1 in WSW 3 mph 6 mph 64 % 0 in
20:12 57 °F 45 °F 30.1 in SW 2 mph 6 mph 64 % 0 in
20:17 56.8 °F 45.1 °F 30.1 in WSW 1 mph 5 mph 65 % 0 in
20:22 56.8 °F 45.1 °F 30.1 in SW 2 mph 5 mph 65 % 0 in
20:32 56.5 °F 45.3 °F 30.1 in WSW 2 mph 7 mph 66 % 0 in
20:37 56.3 °F 45.1 °F 30.1 in WSW 3 mph 7 mph 66 % 0 in
20:42 56.1 °F 45 °F 30.1 in SW 4 mph 7 mph 66 % 0 in
20:47 55.9 °F 45.1 °F 30.1 in WSW 4 mph 6 mph 67 % 0 in
20:52 55.9 °F 45.1 °F 30.1 in WSW 3 mph 6 mph 67 % 0 in
20:57 55.4 °F 45.3 °F 30.1 in West 1 mph 5 mph 69 % 0 in
21:02 54.7 °F 45.5 °F 30.1 in West 1 mph 5 mph 71 % 0 in
21:07 54.1 °F 45.3 °F 30.1 in Calm   4 mph 72 % 0 in
21:12 54.1 °F 45.3 °F 30.1 in WSW 2 mph 3 mph 72 % 0 in
21:17 54 °F 45.1 °F 30.1 in West 1 mph 3 mph 72 % 0 in
21:22 54 °F 45.1 °F 30.1 in WSW 1 mph 3 mph 72 % 0 in
21:27 53.8 °F 45.3 °F 30.1 in West 2 mph 3 mph 73 % 0 in
21:32 53.4 °F 45 °F 30.1 in Calm   3 mph 73 % 0 in
21:37 53.1 °F 45 °F 30.1 in Calm   3 mph 74 % 0 in
21:42 52.7 °F 45 °F 30.1 in Calm   3 mph 75 % 0 in
21:52 52.3 °F 45 °F 30.1 in West 2 mph 2 mph 76 % 0 in
21:57 52.7 °F 45 °F 30.1 in WSW 2 mph 3 mph 75 % 0 in
22:02 52.9 °F 44.8 °F 30.1 in WSW 1 mph 4 mph 74 % 0 in
22:07 53.2 °F 44.8 °F 30.1 in SW 3 mph 4 mph 73 % 0 in
22:12 54 °F 45.1 °F 30.1 in WSW 4 mph 5 mph 72 % 0 in
22:17 54.3 °F 45.1 °F 30.1 in WSW 3 mph 6 mph 71 % 0 in
22:22 54.5 °F 45.3 °F 30.1 in SW 2 mph 6 mph 71 % 0 in
22:27 54.9 °F 45.3 °F 30.1 in West 3 mph 7 mph 70 % 0 in
22:32 54.9 °F 45.3 °F 30.1 in WSW 3 mph 7 mph 70 % 0 in
22:37 54.9 °F 45.3 °F 30.1 in SW 1 mph 7 mph 70 % 0 in
22:42 54.9 °F 45.3 °F 30.1 in WSW 3 mph 5 mph 70 % 0 in
22:47 54.9 °F 45.3 °F 30.1 in West 2 mph 4 mph 70 % 0 in
22:52 54.9 °F 45.3 °F 30.1 in West 2 mph 5 mph 70 % 0 in
22:57 54.7 °F 45.5 °F 30.1 in Calm   5 mph 71 % 0 in
23:02 54.1 °F 45.7 °F 30.1 in Calm   5 mph 73 % 0 in
23:07 53.2 °F 45.9 °F 30.1 in Calm   5 mph 76 % 0 in
23:12 52.5 °F 45.5 °F 30.1 in Calm   2 mph 77 % 0 in
23:17 51.8 °F 45.5 °F 30.1 in SSE 1 mph 1 mph 79 % 0 in
23:22 51.3 °F 45.3 °F 30.1 in SW 1 mph 3 mph 80 % 0 in
23:27 50.9 °F 45.3 °F 30.1 in SSE 1 mph 3 mph 81 % 0 in
23:32 50.7 °F 45.5 °F 30.1 in Calm   3 mph 82 % 0 in
23:37 50.4 °F 45.3 °F 30.1 in Calm   2 mph 83 % 0 in
23:42 50.2 °F 45.5 °F 30.1 in Calm   2 mph 84 % 0 in
23:47 50 °F 45.3 °F 30.1 in Calm   2 mph 84 % 0 in
23:52 50.2 °F 45.5 °F 30.1 in Calm   2 mph 84 % 0 in
23:57 50.2 °F 45.5 °F 30.1 in Calm   1 mph 84 % 0 in
Meteo18
Compliments of Weather Underground - 4 mb

Script developed by  Jim McMurry - jmcmurry@mwt.net Adapted for the template by  Wim van der Kuil - Leuven-Template.eu

You find our weather info also at:

European Weather Network

Weather Underground

Equipment we use:

Weather-station
Davis Vue

Weather-program
Meteohub

Weather-server
Raspberry PI 2 B+

Provider
1 and 1

Davis Vue

Meteohub

Raspberry PI 2 B+

1 and 1